createdAt,value
2023-01-31T00:00:11.724Z,102162.94
2023-01-31T00:05:14.491Z,102159.88
2023-01-31T00:10:18.673Z,102172.44
2023-01-31T00:15:21.668Z,102164.81
2023-01-31T00:20:24.336Z,102175.56
2023-01-31T00:25:28.443Z,102174.78
2023-01-31T00:30:31.014Z,102177.63
2023-01-31T00:35:33.569Z,102172.44
2023-01-31T00:40:37.902Z,102175.34
2023-01-31T00:45:42.285Z,102171.88
2023-01-31T00:50:44.840Z,102173.09
2023-01-31T00:55:48.889Z,102172.19
2023-01-31T01:00:51.474Z,102188.19
2023-01-31T01:05:54.100Z,102183.88
2023-01-31T01:10:58.174Z,102173.63
2023-01-31T01:16:05.853Z,102170.84
2023-01-31T01:21:09.885Z,102179.59
2023-01-31T01:26:16.657Z,102179.56
2023-01-31T01:31:20.763Z,102174.41
2023-01-31T01:36:25.755Z,102165.63
2023-01-31T01:41:29.845Z,102156.25
2023-01-31T01:46:35.230Z,102156.50
2023-01-31T01:51:39.809Z,102149.41
2023-01-31T01:56:47.952Z,102154.75
2023-01-31T02:01:51.773Z,102154.94
2023-01-31T02:06:55.574Z,102162.25
2023-01-31T02:12:00.182Z,102155.25
2023-01-31T02:17:02.838Z,102161.19
2023-01-31T02:22:15.603Z,102163.88
2023-01-31T02:27:34.337Z,102164.13
2023-01-31T02:33:00.028Z,102168.25
2023-01-31T02:38:14.216Z,102177.81
2023-01-31T02:43:27.084Z,102179.50
2023-01-31T02:48:42.510Z,102168.22
2023-01-31T02:53:49.277Z,102162.03
2023-01-31T02:58:57.428Z,102163.06
2023-01-31T03:04:05.559Z,102159.78
2023-01-31T03:09:34.533Z,102151.03
2023-01-31T03:14:44.393Z,102146.16
2023-01-31T03:19:59.472Z,102131.97
2023-01-31T03:25:07.770Z,102125.06
2023-01-31T03:30:16.210Z,102139.66
2023-01-31T03:35:22.465Z,102116.56
2023-01-31T03:40:28.473Z,102123.06
2023-01-31T03:45:37.404Z,102107.38
2023-01-31T03:50:45.257Z,102101.13
2023-01-31T03:55:53.244Z,102089.09
2023-01-31T04:01:00.250Z,102082.94
2023-01-31T04:06:05.197Z,102080.72
2023-01-31T04:11:12.949Z,102080.13
2023-01-31T04:16:15.919Z,102075.09
2023-01-31T04:21:19.829Z,102080.31
2023-01-31T04:26:22.428Z,102088.06
2023-01-31T04:31:25.110Z,102085.31
2023-01-31T04:36:29.121Z,102093.22
2023-01-31T04:41:32.084Z,102094.78
2023-01-31T04:46:34.703Z,102085.84
2023-01-31T04:51:38.599Z,102085.47
2023-01-31T04:56:41.202Z,102069.44
2023-01-31T05:01:43.828Z,102080.75
2023-01-31T05:06:47.697Z,102080.72
2023-01-31T05:11:50.271Z,102066.09
2023-01-31T05:16:52.960Z,102066.22
2023-01-31T05:21:58.929Z,102069.94
2023-01-31T05:27:03.423Z,102058.22
2023-01-31T05:32:07.443Z,102045.09
2023-01-31T05:37:11.650Z,102050.38
2023-01-31T05:42:14.587Z,102037.91
2023-01-31T05:47:17.313Z,102014.97
2023-01-31T05:52:21.468Z,101994.38
2023-01-31T05:57:24.004Z,101998.94
2023-01-31T06:02:26.580Z,102012.31
2023-01-31T06:07:30.766Z,102010.16
2023-01-31T06:12:33.427Z,102009.63
2023-01-31T06:17:36.483Z,102004.44
2023-01-31T06:22:40.453Z,102007.53
2023-01-31T06:27:43.874Z,102014.28
2023-01-31T06:32:46.427Z,102008.13
2023-01-31T06:37:50.832Z,102010.94
2023-01-31T06:42:53.368Z,102018.88
2023-01-31T06:47:56.138Z,102030.50
2023-01-31T06:53:00.230Z,102034.66
2023-01-31T06:58:02.793Z,102009.31
2023-01-31T07:03:05.794Z,102020.72
2023-01-31T07:08:09.696Z,102002.16
2023-01-31T07:13:12.240Z,101996.47
2023-01-31T07:18:14.820Z,101992.13
2023-01-31T07:23:18.723Z,102006.97
2023-01-31T07:28:21.262Z,102001.13
2023-01-31T07:33:23.823Z,102008.69
2023-01-31T07:38:27.716Z,101999.00
2023-01-31T07:43:31.233Z,101953.91
2023-01-31T07:48:34.158Z,101976.34
2023-01-31T07:53:42.055Z,101930.56
2023-01-31T07:58:45.931Z,101970.53
2023-01-31T08:03:48.478Z,101986.06
2023-01-31T08:08:52.325Z,101980.09
2023-01-31T08:13:55.375Z,101982.06
2023-01-31T08:18:58.067Z,101964.25
2023-01-31T08:24:01.991Z,101964.91
2023-01-31T08:29:04.706Z,101932.97
2023-01-31T08:34:08.336Z,101895.63
2023-01-31T08:39:12.836Z,101924.56
2023-01-31T08:44:15.773Z,101931.28
2023-01-31T08:49:18.735Z,101915.75
2023-01-31T08:54:22.617Z,101908.16
2023-01-31T08:59:25.171Z,101898.69
2023-01-31T09:04:27.970Z,101911.13
2023-01-31T09:09:31.884Z,101904.75
2023-01-31T09:14:34.687Z,101892.03
2023-01-31T09:19:37.417Z,101896.94
2023-01-31T09:24:41.528Z,101896.69
2023-01-31T09:29:44.099Z,101900.09
2023-01-31T09:34:48.328Z,101894.16
2023-01-31T09:39:52.322Z,101888.78
2023-01-31T09:45:02.809Z,101866.44
2023-01-31T09:50:10.356Z,101874.47
2023-01-31T09:55:19.439Z,101857.78
2023-01-31T10:00:29.163Z,101848.53
2023-01-31T10:05:40.445Z,101838.53
2023-01-31T10:10:49.093Z,101857.13
2023-01-31T10:15:56.447Z,101847.72
2023-01-31T10:21:05.403Z,101836.63
2023-01-31T10:26:14.691Z,101831.91
2023-01-31T10:31:29.198Z,101824.06
2023-01-31T10:36:35.664Z,101824.91
2023-01-31T10:42:00.991Z,101823.19
2023-01-31T10:47:04.037Z,101842.22
2023-01-31T10:52:15.184Z,101827.63
2023-01-31T10:57:19.173Z,101826.09
2023-01-31T11:02:25.200Z,101815.91
2023-01-31T11:07:30.509Z,101811.03
2023-01-31T11:12:44.145Z,101799.91
2023-01-31T11:17:48.432Z,101795.38
2023-01-31T11:22:51.866Z,101786.25
2023-01-31T11:27:59.955Z,101785.56
2023-01-31T11:33:03.247Z,101746.88
2023-01-31T11:38:24.393Z,101771.03
2023-01-31T11:43:31.734Z,101761.47
2023-01-31T11:48:42.318Z,101775.84
2023-01-31T11:53:49.083Z,101762.91
2023-01-31T11:58:55.641Z,101745.53
2023-01-31T12:04:03.615Z,101765.53
2023-01-31T12:09:20.594Z,101761.09
2023-01-31T12:14:25.984Z,101762.44
2023-01-31T12:19:45.020Z,101742.94
2023-01-31T12:25:02.535Z,101764.50
2023-01-31T12:30:25.822Z,101714.75
2023-01-31T12:35:40.553Z,101718.97
2023-01-31T12:40:49.728Z,101720.06
2023-01-31T12:46:09.780Z,101715.06
2023-01-31T12:51:24.842Z,101721.53
2023-01-31T12:56:51.064Z,101722.66
2023-01-31T13:02:01.439Z,101722.56
2023-01-31T13:07:06.943Z,101725.59
2023-01-31T13:12:14.720Z,101716.91
2023-01-31T13:17:25.853Z,101711.69
2023-01-31T13:22:34.379Z,101710.56
2023-01-31T13:27:41.812Z,101723.47
2023-01-31T13:32:49.260Z,101719.84
2023-01-31T13:37:54.810Z,101712.75
2023-01-31T13:43:03.501Z,101713.75
2023-01-31T13:48:11.546Z,101716.63
2023-01-31T13:53:21.008Z,101704.22
2023-01-31T13:58:26.331Z,101704.22
2023-01-31T14:03:30.626Z,101695.16
2023-01-31T14:08:39.998Z,101688.59
2023-01-31T14:13:44.956Z,101696.69
2023-01-31T14:18:48.839Z,101694.47
2023-01-31T14:23:51.352Z,101695.94
2023-01-31T14:28:54.260Z,101703.47
2023-01-31T14:33:58.632Z,101710.06
2023-01-31T14:39:29.398Z,101710.97
2023-01-31T14:44:46.171Z,101700.06
2023-01-31T14:50:21.920Z,101706.31
2023-01-31T14:55:42.140Z,101720.13
2023-01-31T15:06:31.208Z,101743.50
2023-01-31T15:11:43.206Z,101748.59
2023-01-31T15:16:46.162Z,101749.31
2023-01-31T15:21:51.158Z,101758.97
2023-01-31T15:26:55.972Z,101750.75
2023-01-31T15:32:04.801Z,101741.88
2023-01-31T15:37:16.438Z,101752.38
2023-01-31T15:42:26.317Z,101754.13
2023-01-31T15:47:29.026Z,101764.28
2023-01-31T15:52:34.487Z,101767.84
2023-01-31T15:57:42.345Z,101765.72
2023-01-31T16:02:47.691Z,101760.63
2023-01-31T16:07:50.499Z,101751.19
2023-01-31T16:12:55.847Z,101763.09
2023-01-31T16:18:02.468Z,101763.06
2023-01-31T16:23:05.637Z,101764.47
2023-01-31T16:28:13.328Z,101756.53
2023-01-31T16:33:18.870Z,101777.66
2023-01-31T16:38:26.682Z,101781.72
2023-01-31T16:43:32.150Z,101777.31
2023-01-31T16:48:36.714Z,101782.56
2023-01-31T16:53:42.426Z,101781.91
2023-01-31T16:58:52.114Z,101800.47
2023-01-31T17:04:14.962Z,101810.66
2023-01-31T17:09:22.082Z,101817.69
2023-01-31T17:14:26.058Z,101819.09
2023-01-31T17:19:30.318Z,101802.75
2023-01-31T17:24:32.927Z,101766.03
2023-01-31T17:29:36.791Z,101790.78
2023-01-31T17:34:39.488Z,101780.41
2023-01-31T17:39:42.094Z,101777.97
2023-01-31T17:44:46.246Z,101782.13
2023-01-31T17:49:48.813Z,101786.22
2023-01-31T17:54:51.345Z,101784.06
2023-01-31T17:59:55.293Z,101787.41
2023-01-31T18:04:57.898Z,101790.16
2023-01-31T18:10:00.621Z,101792.84
2023-01-31T18:15:05.408Z,101770.41
2023-01-31T18:20:09.013Z,101774.63
2023-01-31T18:25:12.288Z,101763.00
2023-01-31T18:30:16.376Z,101784.78
2023-01-31T18:35:22.028Z,101763.81
2023-01-31T18:40:25.185Z,101781.91
2023-01-31T18:45:30.173Z,101797.59
2023-01-31T18:50:32.788Z,101802.06
2023-01-31T18:55:35.347Z,101811.75
2023-01-31T19:00:39.592Z,101808.13
2023-01-31T19:05:42.259Z,101815.38
2023-01-31T19:10:44.893Z,101812.75
2023-01-31T19:15:49.018Z,101810.53
2023-01-31T19:20:52.019Z,101817.78
2023-01-31T19:25:55.226Z,101792.88
2023-01-31T19:31:04.920Z,101817.03
2023-01-31T19:36:11.853Z,101779.28
2023-01-31T19:41:16.914Z,101821.38
2023-01-31T19:46:21.702Z,101818.16
2023-01-31T19:51:25.149Z,101827.75
2023-01-31T19:56:28.304Z,101823.25
2023-01-31T20:01:32.764Z,101798.69
2023-01-31T20:06:35.669Z,101823.56
2023-01-31T20:11:38.228Z,101819.16
2023-01-31T20:16:42.178Z,101819.34
2023-01-31T20:21:45.484Z,101816.88
2023-01-31T20:26:48.209Z,101784.78
2023-01-31T20:31:52.227Z,101826.03
2023-01-31T20:36:54.812Z,101827.16
2023-01-31T20:41:57.821Z,101827.31
2023-01-31T20:47:01.719Z,101821.81
2023-01-31T20:52:04.590Z,101819.88
2023-01-31T20:57:07.225Z,101819.06
2023-01-31T21:02:12.216Z,101811.03
2023-01-31T21:07:14.756Z,101816.19
2023-01-31T21:12:17.348Z,101815.97
2023-01-31T21:17:27.612Z,101817.28
2023-01-31T21:22:37.308Z,101787.88
2023-01-31T21:27:40.123Z,101809.00
2023-01-31T21:32:44.245Z,101812.31
2023-01-31T21:37:48.847Z,101817.53
2023-01-31T21:42:51.985Z,101816.03
2023-01-31T21:48:15.739Z,101767.88
2023-01-31T21:53:18.455Z,101789.66
2023-01-31T21:58:21.278Z,101786.47
2023-01-31T22:03:25.155Z,101779.16
2023-01-31T22:08:27.685Z,101778.09
2023-01-31T22:13:31.107Z,101765.31
2023-01-31T22:18:35.789Z,101727.31
2023-01-31T22:23:40.156Z,101761.09
2023-01-31T22:28:43.150Z,101758.19
2023-01-31T22:33:47.143Z,101754.06
2023-01-31T22:38:50.262Z,101765.34
2023-01-31T22:43:53.812Z,101755.03
2023-01-31T22:48:58.266Z,101749.00
2023-01-31T22:54:01.931Z,101739.97
2023-01-31T22:59:06.156Z,101706.25
2023-01-31T23:04:11.831Z,101695.69
2023-01-31T23:09:14.395Z,101712.94
2023-01-31T23:14:16.939Z,101724.53
2023-01-31T23:19:20.817Z,101724.22
2023-01-31T23:24:23.374Z,101718.97
2023-01-31T23:29:26.147Z,101725.22
2023-01-31T23:34:30.024Z,101723.91
2023-01-31T23:39:32.803Z,101733.72
2023-01-31T23:44:35.339Z,101737.06
2023-01-31T23:49:39.258Z,101747.47
2023-01-31T23:54:41.778Z,101744.03
2023-01-31T23:59:45.292Z,101732.59
